sensor_id;sensor_type;location;lat;lon;timestamp;temperature;humidity
59162;DHT22;44942;48.936;8.260;2024-02-26T00:03:21;20.80;52.10
59162;DHT22;44942;48.936;8.260;2024-02-26T00:08:22;20.80;52.20
59162;DHT22;44942;48.936;8.260;2024-02-26T00:13:23;20.80;52.20
59162;DHT22;44942;48.936;8.260;2024-02-26T00:18:23;20.80;52.10
59162;DHT22;44942;48.936;8.260;2024-02-26T00:23:24;20.80;52.20
59162;DHT22;44942;48.936;8.260;2024-02-26T00:28:24;20.80;52.30
59162;DHT22;44942;48.936;8.260;2024-02-26T00:33:25;20.80;52.30
59162;DHT22;44942;48.936;8.260;2024-02-26T00:38:26;20.80;52.30
59162;DHT22;44942;48.936;8.260;2024-02-26T00:43:26;20.70;51.70
59162;DHT22;44942;48.936;8.260;2024-02-26T00:48:27;20.70;51.10
59162;DHT22;44942;48.936;8.260;2024-02-26T00:53:27;20.70;51.00
59162;DHT22;44942;48.936;8.260;2024-02-26T00:58:29;20.70;51.10
59162;DHT22;44942;48.936;8.260;2024-02-26T01:03:30;20.80;51.30
59162;DHT22;44942;48.936;8.260;2024-02-26T01:08:30;20.80;51.40
59162;DHT22;44942;48.936;8.260;2024-02-26T01:13:32;20.80;51.40
59162;DHT22;44942;48.936;8.260;2024-02-26T01:18:32;20.80;51.50
59162;DHT22;44942;48.936;8.260;2024-02-26T01:23:33;20.80;51.60
59162;DHT22;44942;48.936;8.260;2024-02-26T01:28:33;20.80;51.60
59162;DHT22;44942;48.936;8.260;2024-02-26T01:33:34;20.80;51.60
59162;DHT22;44942;48.936;8.260;2024-02-26T01:38:34;20.80;51.70
59162;DHT22;44942;48.936;8.260;2024-02-26T01:43:35;20.80;51.70
59162;DHT22;44942;48.936;8.260;2024-02-26T01:48:36;20.80;51.70
59162;DHT22;44942;48.936;8.260;2024-02-26T01:53:37;20.80;51.70
59162;DHT22;44942;48.936;8.260;2024-02-26T01:58:37;20.80;51.80
59162;DHT22;44942;48.936;8.260;2024-02-26T02:03:38;20.80;51.70
59162;DHT22;44942;48.936;8.260;2024-02-26T02:08:39;20.80;51.80
59162;DHT22;44942;48.936;8.260;2024-02-26T02:13:39;20.80;51.80
59162;DHT22;44942;48.936;8.260;2024-02-26T02:18:40;20.80;51.90
59162;DHT22;44942;48.936;8.260;2024-02-26T02:23:41;20.80;51.90
59162;DHT22;44942;48.936;8.260;2024-02-26T02:28:47;20.80;51.90
59162;DHT22;44942;48.936;8.260;2024-02-26T02:33:48;20.80;51.90
59162;DHT22;44942;48.936;8.260;2024-02-26T02:38:52;20.80;52.00
59162;DHT22;44942;48.936;8.260;2024-02-26T02:43:52;20.70;51.70
59162;DHT22;44942;48.936;8.260;2024-02-26T02:48:53;20.70;51.30
59162;DHT22;44942;48.936;8.260;2024-02-26T02:53:53;20.70;51.30
59162;DHT22;44942;48.936;8.260;2024-02-26T02:58:54;20.80;51.40
59162;DHT22;44942;48.936;8.260;2024-02-26T03:03:55;20.80;51.50
59162;DHT22;44942;48.936;8.260;2024-02-26T03:08:55;20.80;51.60
59162;DHT22;44942;48.936;8.260;2024-02-26T03:13:56;20.80;51.60
59162;DHT22;44942;48.936;8.260;2024-02-26T03:18:57;20.80;51.70
59162;DHT22;44942;48.936;8.260;2024-02-26T03:23:57;20.80;51.80
59162;DHT22;44942;48.936;8.260;2024-02-26T03:28:58;20.80;51.80
59162;DHT22;44942;48.936;8.260;2024-02-26T03:33:59;20.80;51.90
59162;DHT22;44942;48.936;8.260;2024-02-26T03:38:59;20.80;51.90
59162;DHT22;44942;48.936;8.260;2024-02-26T03:44:00;20.80;52.00
59162;DHT22;44942;48.936;8.260;2024-02-26T03:49:00;20.80;52.00
59162;DHT22;44942;48.936;8.260;2024-02-26T03:54:01;20.80;52.00
59162;DHT22;44942;48.936;8.260;2024-02-26T03:59:02;20.80;52.10
59162;DHT22;44942;48.936;8.260;2024-02-26T04:04:03;20.80;52.10
59162;DHT22;44942;48.936;8.260;2024-02-26T04:09:03;20.80;52.20
59162;DHT22;44942;48.936;8.260;2024-02-26T04:14:04;20.80;52.20
59162;DHT22;44942;48.936;8.260;2024-02-26T04:19:06;20.80;51.80
59162;DHT22;44942;48.936;8.260;2024-02-26T04:24:07;20.80;52.10
59162;DHT22;44942;48.936;8.260;2024-02-26T04:29:07;20.80;52.20
59162;DHT22;44942;48.936;8.260;2024-02-26T04:34:08;20.80;52.20
59162;DHT22;44942;48.936;8.260;2024-02-26T04:39:09;20.80;52.10
59162;DHT22;44942;48.936;8.260;2024-02-26T04:44:10;20.60;51.60
59162;DHT22;44942;48.936;8.260;2024-02-26T04:49:11;20.70;51.50
59162;DHT22;44942;48.936;8.260;2024-02-26T04:54:11;20.80;51.40
59162;DHT22;44942;48.936;8.260;2024-02-26T04:59:12;20.70;51.50
59162;DHT22;44942;48.936;8.260;2024-02-26T05:04:12;20.70;51.40
59162;DHT22;44942;48.936;8.260;2024-02-26T05:09:13;20.70;51.60
59162;DHT22;44942;48.936;8.260;2024-02-26T05:14:13;20.80;51.60
59162;DHT22;44942;48.936;8.260;2024-02-26T05:19:14;20.80;51.70
59162;DHT22;44942;48.936;8.260;2024-02-26T05:24:14;20.80;51.60
59162;DHT22;44942;48.936;8.260;2024-02-26T05:29:17;20.80;51.70
59162;DHT22;44942;48.936;8.260;2024-02-26T05:34:18;20.80;51.70
59162;DHT22;44942;48.936;8.260;2024-02-26T05:39:18;20.80;51.70
59162;DHT22;44942;48.936;8.260;2024-02-26T05:44:22;20.80;51.80
59162;DHT22;44942;48.936;8.260;2024-02-26T05:49:22;20.80;51.90
59162;DHT22;44942;48.936;8.260;2024-02-26T05:54:23;20.80;52.00
59162;DHT22;44942;48.936;8.260;2024-02-26T05:59:24;20.80;52.00
59162;DHT22;44942;48.936;8.260;2024-02-26T06:04:24;20.80;52.00
59162;DHT22;44942;48.936;8.260;2024-02-26T06:09:25;20.80;52.00
59162;DHT22;44942;48.936;8.260;2024-02-26T06:14:25;20.80;52.10
59162;DHT22;44942;48.936;8.260;2024-02-26T06:19:26;20.80;52.20
59162;DHT22;44942;48.936;8.260;2024-02-26T06:24:26;20.80;52.20
59162;DHT22;44942;48.936;8.260;2024-02-26T06:29:27;20.80;52.20
59162;DHT22;44942;48.936;8.260;2024-02-26T06:34:27;20.80;52.20
59162;DHT22;44942;48.936;8.260;2024-02-26T06:39:28;20.80;52.10
59162;DHT22;44942;48.936;8.260;2024-02-26T06:44:28;20.60;51.90
59162;DHT22;44942;48.936;8.260;2024-02-26T06:49:32;20.50;50.60
59162;DHT22;44942;48.936;8.260;2024-02-26T06:54:32;19.70;49.20
59162;DHT22;44942;48.936;8.260;2024-02-26T06:59:33;18.80;48.70
59162;DHT22;44942;48.936;8.260;2024-02-26T07:04:34;18.20;49.40
59162;DHT22;44942;48.936;8.260;2024-02-26T07:09:35;18.40;50.80
59162;DHT22;44942;48.936;8.260;2024-02-26T07:14:35;18.90;50.80
59162;DHT22;44942;48.936;8.260;2024-02-26T07:19:38;19.20;50.80
59162;DHT22;44942;48.936;8.260;2024-02-26T07:24:38;19.50;50.80
59162;DHT22;44942;48.936;8.260;2024-02-26T07:29:39;19.70;50.80
59162;DHT22;44942;48.936;8.260;2024-02-26T07:34:39;19.80;50.80
59162;DHT22;44942;48.936;8.260;2024-02-26T07:39:42;19.90;50.80
59162;DHT22;44942;48.936;8.260;2024-02-26T07:44:42;19.90;50.80
59162;DHT22;44942;48.936;8.260;2024-02-26T07:49:43;20.00;50.80
59162;DHT22;44942;48.936;8.260;2024-02-26T07:54:44;20.10;50.90
59162;DHT22;44942;48.936;8.260;2024-02-26T07:59:44;20.10;50.90
59162;DHT22;44942;48.936;8.260;2024-02-26T09:43:15;18.70;53.40
59162;DHT22;44942;48.936;8.260;2024-02-26T09:48:17;19.80;54.70
59162;DHT22;44942;48.936;8.260;2024-02-26T09:53:18;20.00;53.90
59162;DHT22;44942;48.936;8.260;2024-02-26T09:58:20;20.20;53.70
59162;DHT22;44942;48.936;8.260;2024-02-26T10:03:22;20.20;53.70
59162;DHT22;44942;48.936;8.260;2024-02-26T10:08:25;20.30;53.80
59162;DHT22;44942;48.936;8.260;2024-02-26T10:13:26;20.30;53.90
59162;DHT22;44942;48.936;8.260;2024-02-26T10:18:27;20.40;54.10
59162;DHT22;44942;48.936;8.260;2024-02-26T10:23:27;20.30;54.10
59162;DHT22;44942;48.936;8.260;2024-02-26T10:28:29;20.40;54.30
59162;DHT22;44942;48.936;8.260;2024-02-26T10:33:33;20.40;54.30
59162;DHT22;44942;48.936;8.260;2024-02-26T10:38:35;20.50;54.30
59162;DHT22;44942;48.936;8.260;2024-02-26T10:43:36;20.50;54.20
59162;DHT22;44942;48.936;8.260;2024-02-26T10:48:37;20.50;54.20
59162;DHT22;44942;48.936;8.260;2024-02-26T10:53:38;20.50;54.20
59162;DHT22;44942;48.936;8.260;2024-02-26T10:58:41;20.50;54.20
59162;DHT22;44942;48.936;8.260;2024-02-26T11:03:43;20.50;54.20
59162;DHT22;44942;48.936;8.260;2024-02-26T11:08:44;20.60;54.20
59162;DHT22;44942;48.936;8.260;2024-02-26T11:13:48;20.60;54.30
59162;DHT22;44942;48.936;8.260;2024-02-26T11:18:52;20.60;54.30
59162;DHT22;44942;48.936;8.260;2024-02-26T11:23:55;20.60;54.30
59162;DHT22;44942;48.936;8.260;2024-02-26T11:28:56;20.60;54.30
59162;DHT22;44942;48.936;8.260;2024-02-26T11:33:57;20.60;54.30
59162;DHT22;44942;48.936;8.260;2024-02-26T11:38:57;20.60;54.20
59162;DHT22;44942;48.936;8.260;2024-02-26T11:44:02;20.60;54.20
59162;DHT22;44942;48.936;8.260;2024-02-26T11:54:43;20.60;54.40
59162;DHT22;44942;48.936;8.260;2024-02-26T11:59:44;20.70;54.30
59162;DHT22;44942;48.936;8.260;2024-02-26T12:04:45;20.60;54.90
59162;DHT22;44942;48.936;8.260;2024-02-26T12:09:46;20.70;54.30
59162;DHT22;44942;48.936;8.260;2024-02-26T12:14:55;20.70;54.20
59162;DHT22;44942;48.936;8.260;2024-02-26T12:20:10;20.70;54.30
59162;DHT22;44942;48.936;8.260;2024-02-26T12:25:13;20.70;54.30
59162;DHT22;44942;48.936;8.260;2024-02-26T12:30:13;20.70;54.30
59162;DHT22;44942;48.936;8.260;2024-02-26T12:35:15;20.70;54.30
59162;DHT22;44942;48.936;8.260;2024-02-26T12:40:16;20.70;54.30
59162;DHT22;44942;48.936;8.260;2024-02-26T12:45:17;20.70;54.50
59162;DHT22;44942;48.936;8.260;2024-02-26T12:50:18;20.70;54.40
59162;DHT22;44942;48.936;8.260;2024-02-26T12:55:20;20.70;54.40
59162;DHT22;44942;48.936;8.260;2024-02-26T13:00:24;20.70;54.50
59162;DHT22;44942;48.936;8.260;2024-02-26T13:05:25;20.80;54.50
59162;DHT22;44942;48.936;8.260;2024-02-26T13:10:26;20.80;54.50
59162;DHT22;44942;48.936;8.260;2024-02-26T13:15:27;20.80;54.40
59162;DHT22;44942;48.936;8.260;2024-02-26T13:20:29;20.90;54.30
59162;DHT22;44942;48.936;8.260;2024-02-26T13:25:30;20.90;54.30
59162;DHT22;44942;48.936;8.260;2024-02-26T13:30:31;20.90;54.30
59162;DHT22;44942;48.936;8.260;2024-02-26T13:35:32;20.80;55.00
59162;DHT22;44942;48.936;8.260;2024-02-26T13:40:35;20.80;54.20
59162;DHT22;44942;48.936;8.260;2024-02-26T13:45:37;20.80;54.10
59162;DHT22;44942;48.936;8.260;2024-02-26T13:50:39;20.80;54.00
59162;DHT22;44942;48.936;8.260;2024-02-26T13:55:41;20.90;53.90
59162;DHT22;44942;48.936;8.260;2024-02-26T14:00:45;20.90;54.10
59162;DHT22;44942;48.936;8.260;2024-02-26T14:05:45;20.80;53.90
59162;DHT22;44942;48.936;8.260;2024-02-26T14:10:46;20.80;54.00
59162;DHT22;44942;48.936;8.260;2024-02-26T14:15:47;20.80;53.80
59162;DHT22;44942;48.936;8.260;2024-02-26T14:20:47;20.80;53.90
59162;DHT22;44942;48.936;8.260;2024-02-26T14:25:48;20.90;53.90
59162;DHT22;44942;48.936;8.260;2024-02-26T14:30:48;20.90;53.90
59162;DHT22;44942;48.936;8.260;2024-02-26T14:35:49;20.90;53.90
59162;DHT22;44942;48.936;8.260;2024-02-26T14:40:50;20.90;53.80
59162;DHT22;44942;48.936;8.260;2024-02-26T14:45:50;20.90;53.70
59162;DHT22;44942;48.936;8.260;2024-02-26T14:50:51;20.80;53.60
59162;DHT22;44942;48.936;8.260;2024-02-26T14:55:51;20.80;53.40
59162;DHT22;44942;48.936;8.260;2024-02-26T15:00:52;20.80;53.20
59162;DHT22;44942;48.936;8.260;2024-02-26T15:05:52;20.90;53.20
59162;DHT22;44942;48.936;8.260;2024-02-26T15:10:53;20.90;53.20
59162;DHT22;44942;48.936;8.260;2024-02-26T15:15:54;20.90;53.10
59162;DHT22;44942;48.936;8.260;2024-02-26T15:20:55;20.90;53.10
59162;DHT22;44942;48.936;8.260;2024-02-26T15:25:55;20.90;53.70
59162;DHT22;44942;48.936;8.260;2024-02-26T15:30:56;20.90;53.10
59162;DHT22;44942;48.936;8.260;2024-02-26T15:35:57;20.90;53.10
59162;DHT22;44942;48.936;8.260;2024-02-26T15:40:57;20.90;53.10
59162;DHT22;44942;48.936;8.260;2024-02-26T15:45:58;20.90;53.00
59162;DHT22;44942;48.936;8.260;2024-02-26T15:50:58;20.90;53.10
59162;DHT22;44942;48.936;8.260;2024-02-26T15:55:59;20.90;53.10
59162;DHT22;44942;48.936;8.260;2024-02-26T16:01:00;20.90;53.00
59162;DHT22;44942;48.936;8.260;2024-02-26T16:06:01;20.90;53.10
59162;DHT22;44942;48.936;8.260;2024-02-26T16:11:01;20.90;53.00
59162;DHT22;44942;48.936;8.260;2024-02-26T16:16:09;20.90;53.00
59162;DHT22;44942;48.936;8.260;2024-02-26T16:21:12;20.90;53.10
59162;DHT22;44942;48.936;8.260;2024-02-26T16:26:12;20.90;53.10
59162;DHT22;44942;48.936;8.260;2024-02-26T16:31:13;20.90;53.10
59162;DHT22;44942;48.936;8.260;2024-02-26T16:36:13;20.80;53.10
59162;DHT22;44942;48.936;8.260;2024-02-26T16:41:17;20.80;53.20
59162;DHT22;44942;48.936;8.260;2024-02-26T16:46:17;20.80;53.10
59162;DHT22;44942;48.936;8.260;2024-02-26T16:51:19;20.80;53.10
59162;DHT22;44942;48.936;8.260;2024-02-26T16:56:19;20.80;53.20
59162;DHT22;44942;48.936;8.260;2024-02-26T17:01:20;20.80;53.20
59162;DHT22;44942;48.936;8.260;2024-02-26T17:06:20;20.80;53.20
59162;DHT22;44942;48.936;8.260;2024-02-26T17:11:23;20.60;52.70
59162;DHT22;44942;48.936;8.260;2024-02-26T17:16:24;20.60;52.40
59162;DHT22;44942;48.936;8.260;2024-02-26T17:21:25;20.60;52.20
59162;DHT22;44942;48.936;8.260;2024-02-26T17:26:25;20.70;52.30
59162;DHT22;44942;48.936;8.260;2024-02-26T17:31:26;20.70;52.30
59162;DHT22;44942;48.936;8.260;2024-02-26T17:36:27;20.70;52.40
59162;DHT22;44942;48.936;8.260;2024-02-26T17:41:28;20.70;52.50
59162;DHT22;44942;48.936;8.260;2024-02-26T17:46:28;20.70;52.50
59162;DHT22;44942;48.936;8.260;2024-02-26T17:51:29;20.70;52.50
59162;DHT22;44942;48.936;8.260;2024-02-26T17:56:29;20.70;52.70
59162;DHT22;44942;48.936;8.260;2024-02-26T18:01:30;20.70;52.80
59162;DHT22;44942;48.936;8.260;2024-02-26T18:06:31;20.80;52.80
59162;DHT22;44942;48.936;8.260;2024-02-26T18:11:31;20.70;52.90
59162;DHT22;44942;48.936;8.260;2024-02-26T18:16:33;20.70;53.00
59162;DHT22;44942;48.936;8.260;2024-02-26T18:21:34;20.70;53.00
59162;DHT22;44942;48.936;8.260;2024-02-26T18:26:35;20.70;53.10
59162;DHT22;44942;48.936;8.260;2024-02-26T18:31:35;20.70;53.20
59162;DHT22;44942;48.936;8.260;2024-02-26T18:36:36;20.70;53.20
59162;DHT22;44942;48.936;8.260;2024-02-26T18:41:42;20.70;53.20
59162;DHT22;44942;48.936;8.260;2024-02-26T18:46:45;20.70;53.30
59162;DHT22;44942;48.936;8.260;2024-02-26T18:51:46;20.80;53.40
59162;DHT22;44942;48.936;8.260;2024-02-26T18:56:46;20.70;53.50
59162;DHT22;44942;48.936;8.260;2024-02-26T19:01:47;20.80;53.60
59162;DHT22;44942;48.936;8.260;2024-02-26T19:06:48;20.80;53.60
59162;DHT22;44942;48.936;8.260;2024-02-26T19:11:49;20.80;53.80
59162;DHT22;44942;48.936;8.260;2024-02-26T19:16:52;20.80;53.90
59162;DHT22;44942;48.936;8.260;2024-02-26T19:21:53;20.80;53.70
59162;DHT22;44942;48.936;8.260;2024-02-26T19:26:56;20.80;53.90
59162;DHT22;44942;48.936;8.260;2024-02-26T19:31:56;20.80;54.00
59162;DHT22;44942;48.936;8.260;2024-02-26T19:36:57;20.80;54.10
59162;DHT22;44942;48.936;8.260;2024-02-26T19:42:02;20.80;54.10
59162;DHT22;44942;48.936;8.260;2024-02-26T19:47:03;20.80;54.30
59162;DHT22;44942;48.936;8.260;2024-02-26T19:52:04;20.70;53.90
59162;DHT22;44942;48.936;8.260;2024-02-26T19:57:04;20.60;53.60
59162;DHT22;44942;48.936;8.260;2024-02-26T20:02:07;20.70;53.50
59162;DHT22;44942;48.936;8.260;2024-02-26T20:07:09;20.70;53.60
59162;DHT22;44942;48.936;8.260;2024-02-26T20:12:10;20.80;53.60
59162;DHT22;44942;48.936;8.260;2024-02-26T20:17:11;20.80;53.80
59162;DHT22;44942;48.936;8.260;2024-02-26T20:22:12;20.80;53.80
59162;DHT22;44942;48.936;8.260;2024-02-26T20:27:16;20.80;53.90
59162;DHT22;44942;48.936;8.260;2024-02-26T20:32:16;20.80;53.90
59162;DHT22;44942;48.936;8.260;2024-02-26T20:37:18;20.80;53.90
59162;DHT22;44942;48.936;8.260;2024-02-26T20:42:21;20.80;54.00
59162;DHT22;44942;48.936;8.260;2024-02-26T20:47:21;20.80;54.00
59162;DHT22;44942;48.936;8.260;2024-02-26T20:52:22;20.60;53.70
59162;DHT22;44942;48.936;8.260;2024-02-26T20:57:23;20.60;53.40
59162;DHT22;44942;48.936;8.260;2024-02-26T21:02:23;20.70;53.30
59162;DHT22;44942;48.936;8.260;2024-02-26T21:07:24;20.70;53.30
59162;DHT22;44942;48.936;8.260;2024-02-26T21:12:25;20.70;53.40
59162;DHT22;44942;48.936;8.260;2024-02-26T21:17:26;20.70;53.50
59162;DHT22;44942;48.936;8.260;2024-02-26T21:22:27;20.70;53.50
59162;DHT22;44942;48.936;8.260;2024-02-26T21:27:28;20.80;53.60
59162;DHT22;44942;48.936;8.260;2024-02-26T21:32:28;20.80;53.70
59162;DHT22;44942;48.936;8.260;2024-02-26T21:37:30;20.70;53.80
59162;DHT22;44942;48.936;8.260;2024-02-26T21:42:31;20.70;53.80
59162;DHT22;44942;48.936;8.260;2024-02-26T21:47:31;20.70;53.90
59162;DHT22;44942;48.936;8.260;2024-02-26T21:52:32;20.60;53.60
59162;DHT22;44942;48.936;8.260;2024-02-26T21:57:33;20.60;53.30
59162;DHT22;44942;48.936;8.260;2024-02-26T22:02:33;20.70;53.20
59162;DHT22;44942;48.936;8.260;2024-02-26T22:07:34;20.70;53.20
59162;DHT22;44942;48.936;8.260;2024-02-26T22:12:35;20.70;53.20
59162;DHT22;44942;48.936;8.260;2024-02-26T22:17:36;20.70;53.40
59162;DHT22;44942;48.936;8.260;2024-02-26T22:22:40;20.70;53.40
59162;DHT22;44942;48.936;8.260;2024-02-26T22:27:41;20.70;53.50
59162;DHT22;44942;48.936;8.260;2024-02-26T22:32:42;20.80;53.60
59162;DHT22;44942;48.936;8.260;2024-02-26T22:37:43;20.70;53.50
59162;DHT22;44942;48.936;8.260;2024-02-26T22:42:44;20.70;53.70
59162;DHT22;44942;48.936;8.260;2024-02-26T22:47:44;20.70;53.90
59162;DHT22;44942;48.936;8.260;2024-02-26T22:52:45;20.60;53.70
59162;DHT22;44942;48.936;8.260;2024-02-26T22:57:47;20.60;53.40
59162;DHT22;44942;48.936;8.260;2024-02-26T23:02:48;20.60;53.30
59162;DHT22;44942;48.936;8.260;2024-02-26T23:07:49;20.70;53.40
59162;DHT22;44942;48.936;8.260;2024-02-26T23:12:50;20.70;53.50
59162;DHT22;44942;48.936;8.260;2024-02-26T23:17:51;20.70;53.60
59162;DHT22;44942;48.936;8.260;2024-02-26T23:22:54;20.70;53.50
59162;DHT22;44942;48.936;8.260;2024-02-26T23:27:55;20.70;53.70
59162;DHT22;44942;48.936;8.260;2024-02-26T23:32:55;20.70;53.80
59162;DHT22;44942;48.936;8.260;2024-02-26T23:37:56;20.70;53.80
59162;DHT22;44942;48.936;8.260;2024-02-26T23:42:56;20.80;53.90
59162;DHT22;44942;48.936;8.260;2024-02-26T23:47:57;20.70;53.80
59162;DHT22;44942;48.936;8.260;2024-02-26T23:52:58;20.50;53.60
59162;DHT22;44942;48.936;8.260;2024-02-26T23:57:59;20.60;53.40
